Time;durP1;ratioP1;P1;durP2;ratioP2;P2;SDS_P1;SDS_P2;PMS_P1;PMS_P2;Temp;Humidity;BMP_temperature;BMP_pressure;BME280_temperature;BME280_humidity;BME280_pressure;Samples;Min_cycle;Max_cycle;Signal;HPM_P1;HPM_P2
2023/02/05 03:01:07;;;;;;;20.57;18.43;;;2.40;99.90;;;;;;5702088;23;20587;-78
2023/02/05 03:03:38;;;;;;;20.10;18.00;;;2.30;99.90;;;;;;4927335;29;20459;-79
2023/02/05 03:06:07;;;;;;;19.60;17.77;;;2.40;99.90;;;;;;4926873;29;20207;-78
2023/02/05 03:08:40;;;;;;;19.77;17.23;;;2.40;99.90;;;;;;4925777;29;20261;-78
2023/02/05 03:11:13;;;;;;;22.57;19.40;;;2.40;99.90;;;;;;4928550;29;21046;-78
2023/02/05 03:13:40;;;;;;;23.73;19.00;;;2.40;99.90;;;;;;4926861;29;21001;-78
2023/02/05 03:16:09;;;;;;;19.53;17.60;;;2.40;99.90;;;;;;4924259;29;20963;-78
2023/02/05 03:18:36;;;;;;;19.23;17.40;;;2.40;99.90;;;;;;4925831;29;20455;-78
2023/02/05 03:21:05;;;;;;;18.90;17.17;;;2.40;99.90;;;;;;4923934;29;20478;-78
2023/02/05 03:23:33;;;;;;;20.27;18.23;;;2.40;99.90;;;;;;4925821;29;20457;-78
2023/02/05 03:25:59;;;;;;;20.33;18.17;;;2.30;99.90;;;;;;4926447;29;20510;-78
2023/02/05 03:28:38;;;;;;;20.20;16.83;;;2.40;99.90;;;;;;4927825;29;20252;-78
2023/02/05 03:31:11;;;;;;;17.97;16.13;;;2.30;99.90;;;;;;4927346;29;20482;-78
2023/02/05 03:33:52;;;;;;;18.23;16.43;;;2.30;99.90;;;;;;4924019;29;20463;-79
2023/02/05 03:36:29;;;;;;;18.80;17.10;;;2.30;99.90;;;;;;4922134;29;20447;-78
2023/02/05 03:39:10;;;;;;;18.77;16.73;;;2.30;99.90;;;;;;4921481;29;20543;-78
2023/02/05 03:41:57;;;;;;;18.80;16.90;;;2.40;99.90;;;;;;4934831;28;20557;-77
2023/02/05 03:44:48;;;;;;;18.93;17.10;;;2.40;99.90;;;;;;4917431;29;20458;-78
2023/02/05 03:47:32;;;;;;;19.53;17.63;;;2.40;99.90;;;;;;4923031;29;20455;-78
2023/02/05 03:50:09;;;;;;;19.37;17.27;;;2.50;99.90;;;;;;4922593;29;20456;-77
2023/02/05 03:52:41;;;;;;;20.87;17.53;;;2.50;99.90;;;;;;4933981;29;20223;-78
2023/02/05 03:55:13;;;;;;;19.57;17.33;;;2.50;99.90;;;;;;4927333;29;20223;-77
2023/02/05 03:57:48;;;;;;;22.90;18.77;;;2.50;99.90;;;;;;4924181;29;20455;-78
2023/02/05 04:00:17;;;;;;;19.00;17.10;;;2.50;99.90;;;;;;4925430;29;20456;-79
2023/02/05 04:02:48;;;;;;;18.50;16.67;;;2.50;99.90;;;;;;4925306;29;20242;-83
2023/02/05 04:05:21;;;;;;;18.83;17.03;;;2.50;99.90;;;;;;4924070;29;20451;-82
2023/02/05 04:07:49;;;;;;;18.13;16.63;;;2.50;99.90;;;;;;4918073;29;20641;-80
2023/02/05 04:10:19;;;;;;;20.90;17.47;;;2.50;99.90;;;;;;4925902;29;20204;-80
2023/02/05 04:12:47;;;;;;;24.27;18.37;;;2.50;99.90;;;;;;4929726;29;20283;-80
2023/02/05 04:15:14;;;;;;;18.90;17.03;;;2.50;99.90;;;;;;4927492;29;20220;-79
2023/02/05 04:17:45;;;;;;;19.37;17.07;;;2.40;99.90;;;;;;4927437;29;20295;-79
2023/02/05 04:20:14;;;;;;;17.67;15.87;;;2.40;99.90;;;;;;4933205;29;20451;-80
2023/02/05 04:22:41;;;;;;;18.30;16.70;;;2.40;99.90;;;;;;4926468;29;20567;-79
2023/02/05 04:25:08;;;;;;;18.23;16.30;;;2.40;99.90;;;;;;4926693;29;20507;-77
2023/02/05 04:27:35;;;;;;;17.57;16.00;;;2.30;99.90;;;;;;4918512;29;20727;-78
2023/02/05 04:30:05;;;;;;;17.43;15.80;;;2.30;99.90;;;;;;4916268;29;20634;-78
2023/02/05 04:32:34;;;;;;;18.30;16.53;;;2.30;99.90;;;;;;4919867;29;20987;-78
2023/02/05 04:35:01;;;;;;;20.73;18.00;;;2.30;99.90;;;;;;4924873;29;20251;-79
2023/02/05 04:37:29;;;;;;;19.77;17.77;;;2.20;99.90;;;;;;4926616;29;20199;-78
2023/02/05 04:39:56;;;;;;;19.33;17.43;;;2.20;99.90;;;;;;4927536;29;20258;-78
2023/02/05 04:42:23;;;;;;;19.10;17.20;;;2.10;99.90;;;;;;4924399;29;20506;-78
2023/02/05 04:44:51;;;;;;;19.23;17.30;;;2.00;99.90;;;;;;4916503;29;20460;-79
2023/02/05 04:47:18;;;;;;;20.50;18.47;;;2.00;99.90;;;;;;4914456;29;20464;-81
2023/02/05 04:49:45;;;;;;;23.23;18.17;;;2.00;99.90;;;;;;4915817;29;20456;-79
2023/02/05 04:52:12;;;;;;;20.33;18.20;;;1.90;99.90;;;;;;4924844;29;20287;-79
2023/02/05 04:54:40;;;;;;;20.30;18.00;;;1.80;99.90;;;;;;4926517;29;20471;-79
2023/02/05 04:57:07;;;;;;;20.03;18.03;;;1.80;99.90;;;;;;4924960;29;20507;-77
2023/02/05 04:59:33;;;;;;;19.93;17.30;;;1.70;99.90;;;;;;4934138;29;21035;-79
2023/02/05 05:02:00;;;;;;;18.47;16.67;;;1.60;99.90;;;;;;4923013;29;20885;-81
2023/02/05 05:04:27;;;;;;;19.33;17.47;;;1.60;99.90;;;;;;4912439;29;20882;-79
2023/02/05 05:06:54;;;;;;;18.87;17.07;;;1.50;99.90;;;;;;4912068;29;20449;-79
2023/02/05 05:09:22;;;;;;;19.60;17.60;;;1.50;99.90;;;;;;4923037;29;20469;-79
2023/02/05 05:11:51;;;;;;;19.43;17.30;;;1.50;99.90;;;;;;4923020;29;20460;-84
2023/02/05 05:14:18;;;;;;;18.50;16.77;;;1.50;99.90;;;;;;4923517;29;21014;-78
2023/02/05 05:16:45;;;;;;;18.37;16.47;;;1.50;99.90;;;;;;4922092;29;20509;-78
2023/02/05 05:19:12;;;;;;;20.03;17.93;;;1.50;99.90;;;;;;4926996;29;20446;-79
2023/02/05 05:21:39;;;;;;;19.13;16.93;;;1.50;99.90;;;;;;4922249;29;20467;-79
2023/02/05 05:24:06;;;;;;;18.93;17.13;;;1.60;99.90;;;;;;4921200;29;21092;-78
2023/02/05 05:26:33;;;;;;;17.93;16.33;;;1.60;99.90;;;;;;4923811;29;20464;-78
2023/02/05 05:29:01;;;;;;;18.23;16.57;;;1.60;99.90;;;;;;4922512;29;21023;-78
2023/02/05 05:31:28;;;;;;;17.63;15.90;;;1.60;99.90;;;;;;4923492;29;20832;-79
2023/02/05 05:33:55;;;;;;;19.17;17.40;;;1.70;99.90;;;;;;4923671;29;20259;-78
2023/02/05 05:36:22;;;;;;;18.13;16.40;;;1.80;99.90;;;;;;4926882;29;20459;-78
2023/02/05 05:38:49;;;;;;;20.20;16.70;;;1.80;99.90;;;;;;4926401;29;20860;-78
2023/02/05 05:44:06;;;;;;;19.70;17.53;;;1.80;99.90;;;;;;4921837;29;20255;-79
2023/02/05 05:46:32;;;;;;;18.20;16.53;;;1.80;99.90;;;;;;4923298;29;20207;-77
2023/02/05 05:49:01;;;;;;;19.13;17.33;;;1.90;99.90;;;;;;4924012;29;20246;-78
2023/02/05 05:51:29;;;;;;;18.60;16.87;;;1.80;99.90;;;;;;4915663;29;20471;-78
2023/02/05 05:53:56;;;;;;;19.33;17.50;;;1.80;99.90;;;;;;4920328;29;20756;-78
2023/02/05 05:56:23;;;;;;;19.27;17.20;;;1.90;99.90;;;;;;4926652;29;20459;-79
2023/02/05 05:58:50;;;;;;;19.57;17.47;;;1.90;99.90;;;;;;4924591;29;20963;-78
2023/02/05 06:01:21;;;;;;;17.80;16.13;;;2.00;99.90;;;;;;4920690;29;20468;-78
2023/02/05 06:03:49;;;;;;;17.80;16.20;;;1.90;99.90;;;;;;4922028;29;20471;-78
2023/02/05 06:06:15;;;;;;;17.57;15.90;;;2.00;99.90;;;;;;4925835;29;20243;-78
2023/02/05 06:08:42;;;;;;;17.27;15.67;;;2.00;99.90;;;;;;4925297;29;20642;-79
2023/02/05 06:11:09;;;;;;;17.20;15.43;;;2.00;99.90;;;;;;4923663;29;20223;-78
2023/02/05 06:13:36;;;;;;;17.17;15.53;;;2.00;99.90;;;;;;4927119;29;20200;-78
2023/02/05 06:16:03;;;;;;;16.90;15.40;;;2.10;99.90;;;;;;4917702;29;20253;-80
2023/02/05 06:18:31;;;;;;;18.93;16.47;;;2.10;99.90;;;;;;4914761;29;20861;-84
2023/02/05 06:20:58;;;;;;;17.87;16.30;;;2.10;99.90;;;;;;4922581;29;20258;-83
2023/02/05 06:23:25;;;;;;;18.93;16.93;;;2.10;99.90;;;;;;4927458;29;20455;-81
2023/02/05 06:25:52;;;;;;;17.73;16.03;;;2.00;99.90;;;;;;4926934;29;20255;-83
2023/02/05 06:28:19;;;;;;;18.83;16.97;;;2.00;99.90;;;;;;4928039;29;20219;-81
2023/02/05 06:30:46;;;;;;;19.27;17.57;;;2.00;99.90;;;;;;4925948;29;20286;-80
2023/02/05 06:33:13;;;;;;;17.57;15.63;;;2.00;99.90;;;;;;4926866;29;20459;-81
2023/02/05 06:35:41;;;;;;;17.27;15.73;;;1.90;99.90;;;;;;4924083;29;20696;-81
2023/02/05 06:38:08;;;;;;;17.90;16.37;;;2.00;99.90;;;;;;4921561;29;20447;-80
2023/02/05 06:40:35;;;;;;;19.37;17.50;;;1.90;99.90;;;;;;4928245;29;20459;-80
2023/02/05 06:43:02;;;;;;;19.23;17.43;;;1.90;99.90;;;;;;4924839;29;20681;-79
2023/02/05 06:45:29;;;;;;;18.23;16.40;;;1.80;99.90;;;;;;4921867;29;20241;-77
2023/02/05 06:47:57;;;;;;;18.10;16.17;;;1.80;99.90;;;;;;4927158;29;20498;-77
2023/02/05 06:50:24;;;;;;;18.93;16.97;;;1.80;99.90;;;;;;4928589;29;20455;-77
2023/02/05 06:52:52;;;;;;;21.97;17.53;;;1.70;99.90;;;;;;4934032;29;20207;-77
2023/02/05 06:55:19;;;;;;;17.53;15.97;;;1.80;99.90;;;;;;4928480;29;20555;-77
2023/02/05 06:57:46;;;;;;;19.13;17.33;;;1.80;99.90;;;;;;4918367;29;20485;-82
2023/02/05 07:00:14;;;;;;;18.23;16.53;;;1.80;99.90;;;;;;4915769;29;21003;-78
2023/02/05 07:02:41;;;;;;;21.03;16.73;;;1.90;99.90;;;;;;4928435;29;20246;-77
2023/02/05 07:05:08;;;;;;;17.80;16.27;;;1.90;99.90;;;;;;4931399;29;20196;-81
2023/02/05 07:07:35;;;;;;;17.13;15.53;;;1.90;99.90;;;;;;4933607;29;20460;-78
2023/02/05 07:10:04;;;;;;;17.97;16.43;;;1.90;99.90;;;;;;4936096;29;20207;-78
2023/02/05 07:12:31;;;;;;;18.57;16.77;;;2.00;99.90;;;;;;4926483;29;20220;-77
2023/02/05 07:14:58;;;;;;;18.67;16.70;;;2.10;99.90;;;;;;4934754;29;20258;-79
2023/02/05 07:17:25;;;;;;;18.43;16.80;;;2.10;99.90;;;;;;4927541;29;20259;-78
2023/02/05 07:19:52;;;;;;;17.67;16.00;;;2.20;99.90;;;;;;4928242;29;20243;-77
2023/02/05 07:22:19;;;;;;;18.20;16.33;;;2.30;99.90;;;;;;4934261;29;20313;-77
2023/02/05 07:24:46;;;;;;;17.93;16.27;;;2.40;99.90;;;;;;4931158;29;20263;-78
2023/02/05 07:27:14;;;;;;;18.93;16.20;;;2.40;99.90;;;;;;4934795;29;20235;-77
2023/02/05 07:29:41;;;;;;;17.47;15.97;;;2.50;99.90;;;;;;4930358;29;20290;-78
2023/02/05 07:32:07;;;;;;;17.13;15.77;;;2.60;99.90;;;;;;4939054;29;20223;-78
2023/02/05 07:34:34;;;;;;;17.73;16.03;;;2.70;99.90;;;;;;4927134;29;20272;-78
2023/02/05 07:37:01;;;;;;;17.63;16.13;;;2.80;99.90;;;;;;4924039;29;20205;-77
2023/02/05 07:39:28;;;;;;;16.63;15.17;;;2.80;99.90;;;;;;4943759;29;20259;-77
2023/02/05 07:41:55;;;;;;;17.70;16.00;;;2.80;99.90;;;;;;4927223;29;20649;-77
2023/02/05 07:44:32;;;;;;;17.77;16.13;;;2.90;99.90;;;;;;4927302;29;20290;-78
2023/02/05 07:46:59;;;;;;;17.10;15.60;;;2.90;99.90;;;;;;4926032;29;20208;-78
2023/02/05 07:49:26;;;;;;;17.63;16.00;;;2.90;99.90;;;;;;4933881;29;20226;-79
2023/02/05 07:51:52;;;;;;;17.23;15.67;;;2.90;99.90;;;;;;4925814;29;20224;-78
2023/02/05 07:54:19;;;;;;;17.50;15.90;;;2.90;99.90;;;;;;4930098;29;20204;-78
2023/02/05 07:56:46;;;;;;;18.70;14.97;;;2.90;99.90;;;;;;4930355;29;20228;-79
2023/02/05 07:59:13;;;;;;;17.23;15.63;;;2.80;99.90;;;;;;4927540;29;20228;-79
2023/02/05 08:01:41;;;;;;;16.90;15.27;;;2.90;99.90;;;;;;4929661;29;20239;-78
2023/02/05 08:04:08;;;;;;;17.07;15.47;;;2.90;99.90;;;;;;4925771;29;20248;-79
2023/02/05 08:06:35;;;;;;;17.30;15.50;;;2.90;99.90;;;;;;4928316;29;20243;-80
2023/02/05 08:09:02;;;;;;;18.67;16.83;;;3.00;99.90;;;;;;4925206;29;20207;-84
2023/02/05 08:11:28;;;;;;;18.50;16.57;;;3.00;99.90;;;;;;4920490;29;20643;-83
2023/02/05 08:13:55;;;;;;;18.00;16.23;;;3.10;99.90;;;;;;4921034;29;20258;-83
2023/02/05 08:16:22;;;;;;;19.17;16.97;;;3.10;99.90;;;;;;4925470;29;20279;-79
2023/02/05 08:18:50;;;;;;;18.80;16.90;;;3.10;99.90;;;;;;4931570;29;20295;-79
2023/02/05 08:21:18;;;;;;;18.70;16.90;;;3.10;99.90;;;;;;4916486;29;20256;-83
2023/02/05 08:23:45;;;;;;;19.13;17.33;;;3.10;99.90;;;;;;4924414;29;20211;-84
2023/02/05 08:26:13;;;;;;;18.03;16.33;;;3.20;99.90;;;;;;4922456;29;20204;-79
2023/02/05 08:28:40;;;;;;;18.50;16.63;;;3.20;99.90;;;;;;4917850;29;20196;-80
2023/02/05 08:31:11;;;;;;;18.07;16.37;;;3.30;99.90;;;;;;4931068;29;20241;-80
2023/02/05 08:33:38;;;;;;;17.03;15.73;;;3.30;99.90;;;;;;4931496;29;20206;-81
2023/02/05 08:36:08;;;;;;;18.40;16.80;;;3.40;99.90;;;;;;4920773;29;20218;-80
2023/02/05 08:38:34;;;;;;;19.53;17.63;;;3.40;99.90;;;;;;4931124;29;20688;-80
2023/02/05 08:41:11;;;;;;;17.70;16.20;;;3.40;99.90;;;;;;4931709;29;20715;-79
2023/02/05 08:43:39;;;;;;;18.03;16.53;;;3.40;99.90;;;;;;4926239;29;20202;-80
2023/02/05 08:46:06;;;;;;;18.13;16.43;;;3.40;99.90;;;;;;4924533;29;20196;-79
2023/02/05 08:48:33;;;;;;;17.57;15.97;;;3.40;99.90;;;;;;4927445;29;20259;-79
2023/02/05 08:51:00;;;;;;;18.10;16.40;;;3.40;99.90;;;;;;4927709;29;20314;-78
2023/02/05 08:53:28;;;;;;;17.90;16.30;;;3.40;99.90;;;;;;4923532;29;20751;-83
2023/02/05 08:55:55;;;;;;;17.37;15.97;;;3.50;99.90;;;;;;4922155;29;20242;-81
2023/02/05 08:58:22;;;;;;;17.57;16.03;;;3.50;99.90;;;;;;4926074;29;20738;-83
2023/02/05 09:00:49;;;;;;;16.73;15.40;;;3.50;99.90;;;;;;4923116;29;20228;-79
2023/02/05 09:03:16;;;;;;;16.80;15.20;;;3.60;99.90;;;;;;4913672;29;20207;-79
2023/02/05 09:05:43;;;;;;;16.63;15.23;;;3.60;99.90;;;;;;4917410;29;20196;-84
2023/02/05 09:08:10;;;;;;;17.10;15.67;;;3.60;99.90;;;;;;4917664;29;20208;-80
2023/02/05 09:10:39;;;;;;;17.40;15.90;;;3.70;99.90;;;;;;4921619;29;20208;-79
2023/02/05 09:13:05;;;;;;;17.20;15.50;;;3.80;99.90;;;;;;4920412;29;20243;-78
2023/02/05 09:15:34;;;;;;;16.97;15.47;;;3.80;99.90;;;;;;4922074;29;20270;-80
2023/02/05 09:18:01;;;;;;;16.50;15.20;;;3.90;99.90;;;;;;4923816;29;20216;-80
2023/02/05 09:20:27;;;;;;;17.63;15.83;;;4.10;99.90;;;;;;4921442;29;20231;-79
2023/02/05 09:22:54;;;;;;;17.83;16.00;;;4.20;99.90;;;;;;4915096;29;20584;-80
2023/02/05 09:25:21;;;;;;;17.23;15.57;;;4.40;99.90;;;;;;4912210;29;20630;-81
2023/02/05 09:27:49;;;;;;;16.10;14.60;;;4.50;99.90;;;;;;4911642;29;20216;-79
2023/02/05 09:30:16;;;;;;;16.27;14.77;;;4.60;99.90;;;;;;4914170;29;20295;-79
2023/02/05 09:32:44;;;;;;;17.57;14.80;;;4.70;99.90;;;;;;4922269;29;20229;-81
2023/02/05 09:35:11;;;;;;;17.30;15.47;;;4.70;99.90;;;;;;4912287;29;20299;-82
2023/02/05 09:37:38;;;;;;;18.40;15.47;;;4.80;99.90;;;;;;4919580;29;20211;-83
2023/02/05 09:40:06;;;;;;;16.20;14.80;;;4.80;99.90;;;;;;4923174;29;20300;-82
2023/02/05 09:42:38;;;;;;;16.17;14.33;;;4.80;99.90;;;;;;4926286;29;20219;-82
2023/02/05 09:45:18;;;;;;;16.57;15.07;;;4.70;99.90;;;;;;4926829;29;20202;-82
2023/02/05 09:47:58;;;;;;;15.13;13.83;;;4.80;99.90;;;;;;4926556;29;20204;-82
2023/02/05 09:50:28;;;;;;;15.87;14.30;;;4.80;99.90;;;;;;4926494;29;20195;-82
2023/02/05 09:53:01;;;;;;;16.37;14.83;;;4.90;99.90;;;;;;4921650;29;20209;-82
2023/02/05 09:55:30;;;;;;;16.43;15.00;;;4.90;99.90;;;;;;4915593;29;20275;-82
2023/02/05 09:58:02;;;;;;;15.80;14.30;;;4.90;99.90;;;;;;4924798;29;20670;-84
2023/02/05 10:00:34;;;;;;;14.47;13.27;;;4.90;99.90;;;;;;4913761;29;20215;-82
2023/02/05 10:03:07;;;;;;;15.97;14.40;;;4.80;99.90;;;;;;4919504;29;20632;-79
2023/02/05 10:05:57;;;;;;;14.97;13.70;;;4.80;99.90;;;;;;4918649;29;20201;-84
2023/02/05 10:08:30;;;;;;;15.07;13.77;;;4.80;99.90;;;;;;4918747;29;20205;-83
2023/02/05 10:10:58;;;;;;;16.07;14.73;;;4.80;99.90;;;;;;4925248;29;20231;-81
2023/02/05 10:13:36;;;;;;;15.73;14.27;;;4.80;99.90;;;;;;4928984;29;20203;-81
2023/02/05 10:16:25;;;;;;;15.57;14.17;;;4.70;99.90;;;;;;4929103;29;20215;-81
2023/02/05 10:19:04;;;;;;;16.43;14.90;;;4.70;99.90;;;;;;4932758;29;20213;-80
2023/02/05 10:21:54;;;;;;;15.70;14.40;;;4.70;99.90;;;;;;4921143;29;20223;-81
2023/02/05 10:24:35;;;;;;;16.00;14.50;;;4.80;99.90;;;;;;4927758;29;20216;-81
2023/02/05 10:27:12;;;;;;;16.13;14.53;;;4.80;99.90;;;;;;4930463;29;20191;-80
2023/02/05 10:29:47;;;;;;;15.23;14.07;;;4.80;99.90;;;;;;4915620;29;20634;-80
2023/02/05 10:32:22;;;;;;;16.47;14.73;;;4.70;99.90;;;;;;4925413;29;20277;-79
2023/02/05 10:35:02;;;;;;;15.90;14.50;;;4.70;99.90;;;;;;4924837;29;20216;-80
2023/02/05 10:37:41;;;;;;;15.90;14.03;;;4.70;99.90;;;;;;4930562;29;20299;-80
2023/02/05 10:40:13;;;;;;;15.47;13.93;;;4.60;99.90;;;;;;4927574;29;20624;-79
2023/02/05 10:42:44;;;;;;;15.57;14.17;;;4.50;99.90;;;;;;4928465;29;20250;-79
2023/02/05 10:45:16;;;;;;;16.67;15.03;;;4.50;99.90;;;;;;4929275;29;20200;-80
2023/02/05 10:48:09;;;;;;;15.80;14.23;;;4.40;99.90;;;;;;4932901;29;20207;-79
2023/02/05 10:50:49;;;;;;;16.30;14.53;;;4.40;99.90;;;;;;4917921;29;20630;-79
2023/02/05 10:53:19;;;;;;;16.17;14.50;;;4.40;99.90;;;;;;4933405;29;20199;-79
2023/02/05 10:55:46;;;;;;;15.67;14.30;;;4.40;99.90;;;;;;4926746;29;20736;-80
2023/02/05 10:58:28;;;;;;;16.60;14.63;;;4.30;99.90;;;;;;4932741;29;20203;-80
2023/02/05 11:00:55;;;;;;;15.83;14.20;;;4.30;99.90;;;;;;4925854;29;20296;-79
2023/02/05 11:03:23;;;;;;;16.37;14.77;;;4.30;99.90;;;;;;4929420;29;21230;-79
2023/02/05 11:05:50;;;;;;;15.53;14.03;;;4.30;99.90;;;;;;4927741;29;20228;-79
2023/02/05 11:08:32;;;;;;;15.40;13.90;;;4.30;99.90;;;;;;4927517;29;20212;-80
2023/02/05 11:10:59;;;;;;;17.27;15.43;;;4.30;99.90;;;;;;4927968;29;20228;-80
2023/02/05 11:13:27;;;;;;;16.57;15.17;;;4.30;99.90;;;;;;4928753;29;20210;-83
2023/02/05 11:15:56;;;;;;;15.83;14.47;;;4.30;99.90;;;;;;4928682;29;20232;-85
2023/02/05 11:18:29;;;;;;;15.97;14.50;;;4.40;99.90;;;;;;4926590;29;20263;-84
2023/02/05 11:20:57;;;;;;;16.00;14.60;;;4.50;99.90;;;;;;4926279;29;20235;-84
2023/02/05 11:23:26;;;;;;;16.43;14.90;;;4.50;99.90;;;;;;4926183;29;20204;-85
2023/02/05 11:25:55;;;;;;;16.37;14.77;;;4.70;99.90;;;;;;4927778;29;20210;-84
2023/02/05 11:28:26;;;;;;;15.50;13.97;;;4.70;99.90;;;;;;4927927;29;20212;-79
2023/02/05 11:30:53;;;;;;;15.17;13.97;;;4.80;99.90;;;;;;4929149;29;20278;-78
2023/02/05 11:33:30;;;;;;;17.03;15.37;;;4.80;99.90;;;;;;4924768;29;20271;-79
2023/02/05 11:35:59;;;;;;;16.00;14.50;;;4.90;99.90;;;;;;4930323;29;20227;-79
2023/02/05 11:38:32;;;;;;;16.77;15.10;;;4.90;99.90;;;;;;4925866;29;20210;-79
2023/02/05 11:41:01;;;;;;;16.00;14.37;;;4.80;99.90;;;;;;4925735;29;20225;-80
2023/02/05 11:43:31;;;;;;;16.23;14.77;;;4.80;99.90;;;;;;4921101;29;20226;-80
2023/02/05 11:46:01;;;;;;;16.50;14.90;;;4.80;99.90;;;;;;4918019;29;20644;-80
2023/02/05 11:48:40;;;;;;;15.83;14.43;;;4.80;99.90;;;;;;4919486;29;20205;-80
2023/02/05 11:51:09;;;;;;;15.30;14.03;;;4.80;99.90;;;;;;4926174;29;20721;-80
2023/02/05 11:53:38;;;;;;;16.53;14.83;;;4.80;99.90;;;;;;4931169;29;20243;-81
2023/02/05 11:56:10;;;;;;;15.10;13.90;;;4.90;99.90;;;;;;4924659;29;20311;-80
2023/02/05 11:58:37;;;;;;;15.90;14.50;;;4.90;99.90;;;;;;4933156;29;20206;-79
2023/02/05 12:01:06;;;;;;;16.50;14.80;;;5.00;99.90;;;;;;4921164;29;20237;-79
2023/02/05 12:03:35;;;;;;;15.17;14.03;;;5.00;99.90;;;;;;4927584;29;20638;-79
2023/02/05 12:06:11;;;;;;;16.30;14.67;;;5.10;99.90;;;;;;4926327;29;20193;-81
2023/02/05 12:08:45;;;;;;;16.93;15.03;;;5.10;99.90;;;;;;4929673;29;20636;-81
2023/02/05 12:11:25;;;;;;;17.80;14.97;;;5.10;99.90;;;;;;4926094;29;20724;-83
2023/02/05 12:14:04;;;;;;;16.80;14.27;;;5.10;99.90;;;;;;4922589;29;20209;-84
2023/02/05 12:16:45;;;;;;;16.27;14.83;;;5.10;99.90;;;;;;4919340;29;20229;-83
2023/02/05 12:19:22;;;;;;;17.30;15.47;;;5.20;99.90;;;;;;4924019;29;20247;-79
2023/02/05 12:21:51;;;;;;;18.20;16.37;;;5.30;99.90;;;;;;4921130;29;20227;-78
2023/02/05 12:24:42;;;;;;;17.43;15.87;;;5.30;99.90;;;;;;4917596;29;20230;-80
2023/02/05 12:27:20;;;;;;;17.17;15.60;;;5.40;99.90;;;;;;4921345;29;20235;-79
2023/02/05 12:30:06;;;;;;;17.07;15.47;;;5.40;99.90;;;;;;4927454;29;20621;-79
2023/02/05 12:32:44;;;;;;;17.10;15.50;;;5.30;99.90;;;;;;4920763;29;20235;-79
2023/02/05 12:35:31;;;;;;;16.83;15.27;;;5.20;99.90;;;;;;4927313;29;20205;-79
2023/02/05 12:38:08;;;;;;;17.00;15.50;;;5.30;99.90;;;;;;4929709;29;20216;-78
2023/02/05 12:40:48;;;;;;;16.60;14.97;;;5.20;99.90;;;;;;4933681;29;20252;-78
2023/02/05 12:43:30;;;;;;;16.37;14.83;;;5.20;99.90;;;;;;4922962;29;20214;-79
2023/02/05 12:46:06;;;;;;;15.77;14.47;;;5.20;99.90;;;;;;4903932;29;20297;-79
2023/02/05 12:48:56;;;;;;;16.30;15.00;;;5.20;99.90;;;;;;4918299;29;20275;-80
2023/02/05 12:51:39;;;;;;;16.83;15.30;;;5.20;99.90;;;;;;4929963;29;20239;-79
2023/02/05 12:54:22;;;;;;;16.50;15.20;;;5.10;99.90;;;;;;4923421;29;20208;-77
2023/02/05 12:56:56;;;;;;;16.97;15.30;;;5.10;99.90;;;;;;4911760;29;20221;-78
2023/02/05 12:59:33;;;;;;;17.20;15.47;;;5.10;99.90;;;;;;4918440;29;20195;-78
2023/02/05 13:02:04;;;;;;;16.13;14.53;;;5.10;99.90;;;;;;4918713;29;20733;-79
2023/02/05 13:04:37;;;;;;;16.07;14.77;;;5.10;99.90;;;;;;4927444;29;20222;-80
2023/02/05 13:07:12;;;;;;;16.53;15.03;;;5.00;99.90;;;;;;4928190;29;20204;-79
2023/02/05 13:09:47;;;;;;;16.30;14.90;;;4.90;99.90;;;;;;4919376;29;21082;-79
2023/02/05 13:12:18;;;;;;;16.73;15.17;;;4.90;99.90;;;;;;4925352;29;20716;-78
2023/02/05 13:14:53;;;;;;;15.80;14.50;;;4.90;99.90;;;;;;4927076;29;20244;-78
2023/02/05 13:17:23;;;;;;;16.57;15.20;;;4.80;99.90;;;;;;4925684;29;20293;-79
2023/02/05 13:19:54;;;;;;;16.20;14.70;;;4.80;99.90;;;;;;4918173;29;20217;-79
2023/02/05 13:28:40;;;;;;;16.83;15.17;;;4.60;99.90;;;;;;4924187;29;20611;-79
2023/02/05 13:31:12;;;;;;;16.37;15.07;;;4.60;99.90;;;;;;4921335;29;20532;-77
2023/02/05 13:33:39;;;;;;;16.27;14.73;;;4.60;99.90;;;;;;4915256;29;20199;-79
2023/02/05 13:36:27;;;;;;;16.70;15.03;;;4.50;99.90;;;;;;4927327;29;20206;-78
2023/02/05 13:39:12;;;;;;;16.27;14.67;;;4.50;99.90;;;;;;4927544;29;20257;-77
2023/02/05 13:42:07;;;;;;;17.03;15.63;;;4.50;99.90;;;;;;4926106;29;20223;-77
2023/02/05 13:45:28;;;;;;;17.20;15.40;;;4.40;99.90;;;;;;4917673;29;20656;-77
2023/02/05 13:48:13;;;;;;;16.20;14.60;;;4.40;99.90;;;;;;4884227;29;20205;-77
2023/02/05 13:51:14;;;;;;;16.93;15.23;;;4.40;99.90;;;;;;4887261;29;20212;-77
2023/02/05 13:54:11;;;;;;;16.77;15.27;;;4.40;99.90;;;;;;4901052;29;20212;-77
2023/02/05 13:56:57;;;;;;;16.10;14.80;;;4.40;99.90;;;;;;4919601;29;20219;-77
2023/02/05 13:59:30;;;;;;;16.57;15.07;;;4.40;99.90;;;;;;4926249;29;20218;-77
2023/02/05 14:01:59;;;;;;;16.90;15.40;;;4.40;99.90;;;;;;4929965;29;20260;-78
2023/02/05 14:04:29;;;;;;;17.83;16.10;;;4.40;99.90;;;;;;4931201;29;20187;-77
2023/02/05 14:07:00;;;;;;;16.93;15.33;;;4.30;99.90;;;;;;4926822;29;20748;-78
2023/02/05 14:09:35;;;;;;;17.80;16.10;;;4.40;99.90;;;;;;4925429;29;20195;-79
2023/02/05 14:12:06;;;;;;;17.57;16.17;;;4.40;99.90;;;;;;4933614;29;20218;-77
2023/02/05 14:14:34;;;;;;;18.00;16.20;;;4.30;99.90;;;;;;4932889;29;20255;-77
2023/02/05 14:17:03;;;;;;;25.83;21.40;;;4.40;99.90;;;;;;4933863;29;20246;-76
2023/02/05 14:19:56;;;;;;;29.43;21.37;;;4.30;99.90;;;;;;4931802;29;20609;-77
2023/02/05 14:22:38;;;;;;;32.30;26.77;;;4.30;99.90;;;;;;4929596;29;20251;-83
2023/02/05 14:25:48;;;;;;;24.73;19.40;;;4.30;99.90;;;;;;4929708;29;20206;-81
2023/02/05 14:28:49;;;;;;;18.90;17.00;;;4.30;99.90;;;;;;4935973;29;20657;-81
2023/02/05 14:31:45;;;;;;;16.63;15.13;;;4.20;99.90;;;;;;4928863;29;20289;-82
2023/02/05 14:34:49;;;;;;;16.83;15.43;;;4.20;99.90;;;;;;4930132;29;20680;-81
2023/02/05 14:37:33;;;;;;;16.47;14.97;;;4.10;99.90;;;;;;4930618;29;20283;-81
2023/02/05 14:40:23;;;;;;;16.97;15.50;;;4.10;99.90;;;;;;4926222;29;20207;-81
2023/02/05 14:42:52;;;;;;;17.23;15.70;;;4.10;99.90;;;;;;4930331;29;20244;-82
2023/02/05 14:45:22;;;;;;;16.77;15.40;;;4.10;99.90;;;;;;4927556;29;20215;-84
2023/02/05 14:47:51;;;;;;;16.00;14.77;;;4.10;99.90;;;;;;4917523;29;20654;-78
2023/02/05 14:50:21;;;;;;;16.40;15.10;;;4.00;99.90;;;;;;4922692;29;20268;-82
2023/02/05 14:52:52;;;;;;;16.80;15.43;;;4.00;99.90;;;;;;4932949;29;20715;-81
2023/02/05 14:55:24;;;;;;;17.13;15.73;;;4.00;99.90;;;;;;4929028;29;20214;-81
2023/02/05 14:57:54;;;;;;;16.57;15.27;;;4.00;99.90;;;;;;4931657;29;20278;-81
2023/02/05 15:00:40;;;;;;;16.33;15.13;;;4.00;99.90;;;;;;4928112;29;20279;-80
2023/02/05 15:03:23;;;;;;;17.23;15.90;;;4.00;99.90;;;;;;4929007;29;20441;-81
2023/02/05 15:05:55;;;;;;;16.37;14.97;;;3.90;99.90;;;;;;4926925;29;20267;-78
2023/02/05 15:08:28;;;;;;;17.37;15.87;;;3.90;99.90;;;;;;4920688;29;20211;-76
2023/02/05 15:11:04;;;;;;;17.75;16.35;;;3.90;99.90;;;;;;4915852;29;20502;-77
2023/02/05 15:13:31;;;;;;;16.13;14.83;;;3.80;99.90;;;;;;4915899;29;20712;-78
2023/02/05 15:16:41;;;;;;;16.40;15.17;;;3.80;99.90;;;;;;4911867;29;20209;-82
2023/02/05 15:19:16;;;;;;;16.93;15.73;;;3.80;99.90;;;;;;4932393;29;20288;-77
2023/02/05 15:21:53;;;;;;;16.13;14.83;;;3.70;99.90;;;;;;4915665;29;20246;-76
2023/02/05 15:24:33;;;;;;;;;;;;;;;;;;;;;
2023/02/05 15:27:13;;;;;;;16.40;15.00;;;3.60;99.90;;;;;;4931660;29;20204;-78
2023/02/05 15:29:44;;;;;;;14.93;13.90;;;3.60;99.90;;;;;;4911698;29;20208;-77
2023/02/05 15:32:18;;;;;;;15.93;14.60;;;3.50;99.90;;;;;;4914780;29;20228;-77
2023/02/05 15:34:52;;;;;;;16.47;15.17;;;3.50;99.90;;;;;;4917703;29;20199;-77
2023/02/05 15:37:23;;;;;;;16.93;15.57;;;3.50;99.90;;;;;;4915083;29;20215;-77
2023/02/05 15:39:52;;;;;;;18.30;16.88;;;3.40;99.90;;;;;;4916261;29;20877;-76
2023/02/05 15:42:26;;;;;;;18.95;17.25;;;3.40;99.90;;;;;;4915626;29;21142;-76
2023/02/05 15:44:52;;;;;;;17.97;16.40;;;3.40;99.90;;;;;;4915931;29;20216;-77
2023/02/05 15:47:22;;;;;;;18.77;17.27;;;3.40;99.90;;;;;;4916520;29;20296;-82
2023/02/05 15:49:52;;;;;;;18.43;16.87;;;3.40;99.90;;;;;;4917658;29;20208;-82
2023/02/05 15:52:21;;;;;;;18.00;16.60;;;3.30;99.90;;;;;;4916051;29;20247;-81
2023/02/05 15:54:50;;;;;;;19.17;17.60;;;3.40;99.90;;;;;;4916727;29;20212;-77
2023/02/05 15:57:22;;;;;;;18.77;17.10;;;3.30;99.90;;;;;;4917642;29;20247;-76
2023/02/05 15:59:50;;;;;;;18.57;16.77;;;3.30;99.90;;;;;;4915555;29;20746;-76
2023/02/05 16:02:20;;;;;;;18.97;17.37;;;3.30;99.90;;;;;;4911092;29;20267;-76
2023/02/05 16:04:56;;;;;;;18.97;17.27;;;3.30;99.90;;;;;;4898108;29;20256;-77
2023/02/05 16:07:27;;;;;;;18.43;16.97;;;3.30;99.90;;;;;;4899919;29;20261;-76
2023/02/05 16:09:56;;;;;;;18.73;16.97;;;3.20;99.90;;;;;;4901416;29;20282;-77
2023/02/05 16:12:24;;;;;;;17.97;16.47;;;3.20;99.90;;;;;;4903506;29;20624;-75